createdAt,value
2023-03-05T00:01:33.580Z,1.35
2023-03-05T00:04:03.172Z,1.80
2023-03-05T00:06:32.910Z,1.77
2023-03-05T00:09:01.167Z,1.75
2023-03-05T00:11:30.556Z,1.67
2023-03-05T00:13:59.217Z,1.80
2023-03-05T00:16:29.010Z,1.73
2023-03-05T00:18:59.241Z,1.73
2023-03-05T00:21:39.036Z,2.08
2023-03-05T00:24:11.352Z,1.70
2023-03-05T00:26:40.190Z,1.55
2023-03-05T00:29:18.877Z,1.20
2023-03-05T00:31:47.505Z,1.67
2023-03-05T00:34:18.096Z,1.40
2023-03-05T00:39:34.801Z,1.45
2023-03-05T00:42:02.982Z,1.83
2023-03-05T00:44:49.698Z,1.55
2023-03-05T00:47:18.745Z,1.70
2023-03-05T00:49:46.930Z,1.67
2023-03-05T00:52:14.926Z,1.60
2023-03-05T00:54:43.515Z,1.48
2023-03-05T00:57:11.526Z,1.60
2023-03-05T00:59:40.150Z,1.95
2023-03-05T01:02:08.287Z,1.85
2023-03-05T01:04:36.388Z,1.75
2023-03-05T01:07:06.543Z,1.75
2023-03-05T01:09:34.596Z,1.23
2023-03-05T01:12:02.602Z,1.50
2023-03-05T01:14:30.587Z,1.40
2023-03-05T01:16:58.693Z,1.50
2023-03-05T01:19:26.709Z,1.52
2023-03-05T01:21:55.470Z,1.30
2023-03-05T01:24:23.490Z,1.23
2023-03-05T01:26:52.260Z,1.30
2023-03-05T01:29:20.319Z,1.85
2023-03-05T01:31:49.507Z,1.60
2023-03-05T01:34:18.416Z,1.40
2023-03-05T01:36:46.445Z,1.33
2023-03-05T01:39:14.489Z,1.50
2023-03-05T01:42:01.242Z,1.50
2023-03-05T01:44:30.641Z,1.30
2023-03-05T01:46:58.692Z,1.83
2023-03-05T01:49:42.034Z,1.45
2023-03-05T01:52:14.193Z,1.55
2023-03-05T01:55:06.549Z,1.25
2023-03-05T01:57:38.550Z,1.70
2023-03-05T02:00:11.564Z,1.30
2023-03-05T02:02:45.443Z,1.58
2023-03-05T02:05:44.699Z,1.50
2023-03-05T02:08:16.268Z,1.60
2023-03-05T02:10:53.748Z,1.25
2023-03-05T02:13:28.121Z,1.63
2023-03-05T02:16:14.851Z,1.52
2023-03-05T02:18:43.096Z,1.60
2023-03-05T02:21:12.097Z,1.52
2023-03-05T02:23:40.469Z,1.83
2023-03-05T02:26:11.593Z,1.55
2023-03-05T02:28:44.844Z,1.50
2023-03-05T02:31:16.868Z,1.25
2023-03-05T02:34:04.343Z,1.20
2023-03-05T02:36:32.973Z,1.42
2023-03-05T02:39:01.652Z,1.35
2023-03-05T02:41:29.874Z,1.55
2023-03-05T02:43:59.544Z,1.20
2023-03-05T02:46:27.700Z,1.55
2023-03-05T02:48:55.704Z,1.50
2023-03-05T02:51:23.741Z,1.50
2023-03-05T02:53:51.968Z,1.10
2023-03-05T02:56:19.996Z,1.50
2023-03-05T02:58:48.043Z,1.20
2023-03-05T03:01:16.265Z,1.33
2023-03-05T03:03:44.328Z,1.15
2023-03-05T03:06:12.383Z,1.42
2023-03-05T03:08:40.487Z,1.02
2023-03-05T03:11:12.879Z,1.10
2023-03-05T03:13:41.791Z,0.90
2023-03-05T03:16:12.354Z,1.20
2023-03-05T03:18:40.426Z,1.10
2023-03-05T03:21:08.754Z,1.27
2023-03-05T03:23:36.747Z,1.00
2023-03-05T03:26:04.849Z,1.08
2023-03-05T03:28:32.940Z,0.98
2023-03-05T03:31:01.168Z,0.73
2023-03-05T03:33:29.361Z,0.90
2023-03-05T03:35:57.342Z,0.70
2023-03-05T03:38:25.528Z,1.27
2023-03-05T03:40:53.583Z,0.95
2023-03-05T03:43:21.615Z,1.08
2023-03-05T03:45:49.719Z,1.20
2023-03-05T03:48:18.334Z,1.55
2023-03-05T03:50:46.358Z,1.63
2023-03-05T03:53:14.688Z,0.68
2023-03-05T03:55:43.491Z,0.73
2023-03-05T03:58:11.522Z,1.77
2023-03-05T04:00:41.008Z,1.38
2023-03-05T04:03:09.824Z,1.30
2023-03-05T04:05:37.815Z,1.38
2023-03-05T04:08:08.771Z,1.00
2023-03-05T04:10:36.914Z,1.20
2023-03-05T04:13:05.017Z,1.33
2023-03-05T04:15:34.090Z,0.90
2023-03-05T04:18:02.371Z,1.10
2023-03-05T04:20:49.020Z,1.42
2023-03-05T04:23:17.954Z,1.23
2023-03-05T04:25:46.047Z,0.85
2023-03-05T04:28:14.221Z,1.00
2023-03-05T04:30:42.246Z,1.02
2023-03-05T04:33:10.309Z,0.98
2023-03-05T04:35:38.634Z,0.95
2023-03-05T04:38:07.008Z,0.93
2023-03-05T04:40:35.237Z,1.17
2023-03-05T04:43:04.339Z,0.85
2023-03-05T04:45:33.298Z,1.10
2023-03-05T04:48:01.401Z,0.80
2023-03-05T04:50:29.416Z,1.25
2023-03-05T04:52:58.246Z,1.10
2023-03-05T04:55:26.342Z,1.00
2023-03-05T04:57:54.496Z,1.05
2023-03-05T05:00:23.329Z,0.80
2023-03-05T05:02:52.069Z,0.70
2023-03-05T05:05:23.014Z,1.00
2023-03-05T05:07:54.566Z,1.23
2023-03-05T05:10:22.988Z,1.08
2023-03-05T05:12:51.340Z,0.70
2023-03-05T05:15:19.692Z,0.80
2023-03-05T05:17:48.171Z,0.98
2023-03-05T05:20:17.441Z,1.17
2023-03-05T05:22:45.562Z,1.20
2023-03-05T05:25:13.705Z,1.30
2023-03-05T05:27:42.107Z,1.10
2023-03-05T05:30:10.917Z,0.95
2023-03-05T05:32:39.046Z,1.10
2023-03-05T05:35:07.686Z,1.00
2023-03-05T05:37:35.766Z,1.70
2023-03-05T05:40:05.994Z,1.50
2023-03-05T05:42:34.459Z,1.20
2023-03-05T05:45:03.377Z,1.10
2023-03-05T05:47:31.606Z,1.58
2023-03-05T05:49:59.707Z,1.50
2023-03-05T05:52:27.827Z,1.80
2023-03-05T05:54:55.966Z,1.30
2023-03-05T05:57:25.240Z,1.35
2023-03-05T05:59:53.506Z,1.60
2023-03-05T06:02:21.492Z,1.92
2023-03-05T06:04:49.707Z,1.58
2023-03-05T06:07:17.723Z,1.73
2023-03-05T06:09:45.742Z,2.28
2023-03-05T06:12:13.837Z,2.00
2023-03-05T06:14:41.917Z,2.00
2023-03-05T06:17:11.314Z,2.30
2023-03-05T06:19:40.985Z,1.90
2023-03-05T06:22:09.135Z,2.03
2023-03-05T06:24:38.470Z,2.10
2023-03-05T06:27:06.974Z,1.83
2023-03-05T06:29:35.062Z,1.75
2023-03-05T06:32:03.111Z,1.95
2023-03-05T06:34:31.239Z,1.80
2023-03-05T06:36:59.224Z,1.80
2023-03-05T06:39:27.328Z,2.00
2023-03-05T06:41:55.533Z,1.60
2023-03-05T06:44:23.687Z,1.80
2023-03-05T06:46:51.642Z,1.23
2023-03-05T06:49:19.868Z,1.40
2023-03-05T06:51:48.040Z,1.70
2023-03-05T06:54:17.645Z,1.38
2023-03-05T06:56:47.485Z,1.50
2023-03-05T06:59:17.243Z,1.38
2023-03-05T07:01:46.234Z,1.20
2023-03-05T07:04:15.479Z,1.13
2023-03-05T07:06:45.506Z,1.33
2023-03-05T07:09:16.606Z,1.13
2023-03-05T07:11:44.805Z,1.13
2023-03-05T07:14:12.953Z,1.00
2023-03-05T07:16:41.074Z,0.63
2023-03-05T07:19:11.201Z,0.73
2023-03-05T07:21:40.005Z,1.10
2023-03-05T07:24:09.172Z,0.85
2023-03-05T07:26:37.387Z,1.00
2023-03-05T07:29:05.549Z,0.80
2023-03-05T07:31:33.741Z,0.90
2023-03-05T07:34:04.028Z,0.70
2023-03-05T07:36:32.348Z,0.80
2023-03-05T07:39:00.352Z,0.77
2023-03-05T07:41:28.384Z,0.80
2023-03-05T07:43:56.600Z,0.82
2023-03-05T07:46:27.692Z,0.80
2023-03-05T07:48:57.694Z,1.02
2023-03-05T07:51:27.581Z,0.93
2023-03-05T07:53:57.839Z,1.20
2023-03-05T07:56:36.436Z,1.13
2023-03-05T07:59:11.087Z,1.35
2023-03-05T08:01:39.411Z,1.25
2023-03-05T08:04:08.991Z,1.08
2023-03-05T08:06:41.199Z,0.90
2023-03-05T08:09:09.251Z,0.90
2023-03-05T08:11:37.273Z,1.00
2023-03-05T08:14:05.277Z,0.93
2023-03-05T08:16:33.463Z,0.80
2023-03-05T08:19:01.924Z,1.25
2023-03-05T08:21:33.983Z,1.00
2023-03-05T08:24:06.944Z,0.93
2023-03-05T08:26:38.735Z,1.30
2023-03-05T08:29:08.800Z,1.10
2023-03-05T08:31:37.750Z,1.73
2023-03-05T08:34:06.860Z,1.38
2023-03-05T08:36:53.672Z,0.95
2023-03-05T08:39:21.885Z,0.90
2023-03-05T08:41:49.916Z,1.27
2023-03-05T08:44:18.045Z,0.95
2023-03-05T08:46:46.279Z,1.00
2023-03-05T08:49:33.053Z,1.10
2023-03-05T08:52:01.176Z,1.20
2023-03-05T08:54:29.158Z,1.02
2023-03-05T08:56:57.307Z,0.70
2023-03-05T08:59:25.509Z,0.88
2023-03-05T09:01:53.573Z,0.85
2023-03-05T09:04:40.940Z,1.13
2023-03-05T09:07:27.343Z,1.13
2023-03-05T09:09:55.322Z,0.70
2023-03-05T09:12:23.375Z,0.75
2023-03-05T09:14:54.337Z,0.93
2023-03-05T09:17:23.205Z,0.75
2023-03-05T09:19:51.318Z,0.75
2023-03-05T09:25:05.252Z,1.20
2023-03-05T09:27:37.201Z,1.48
2023-03-05T09:30:06.611Z,0.98
2023-03-05T09:32:34.872Z,0.75
2023-03-05T09:35:03.044Z,0.90
2023-03-05T09:37:31.138Z,0.75
2023-03-05T09:39:59.421Z,1.42
2023-03-05T09:42:48.048Z,1.10
2023-03-05T09:47:53.226Z,1.02
2023-03-05T09:50:39.486Z,0.80
2023-03-05T09:53:19.359Z,0.80
2023-03-05T09:59:18.171Z,1.23
2023-03-05T10:01:49.245Z,1.10
2023-03-05T10:04:24.491Z,0.85
2023-03-05T10:07:13.826Z,1.10
2023-03-05T10:10:01.668Z,1.38
2023-03-05T10:12:46.436Z,0.70
2023-03-05T10:15:16.252Z,0.77
2023-03-05T10:17:56.390Z,0.50
2023-03-05T10:20:55.827Z,0.60
2023-03-05T10:24:01.558Z,0.70
2023-03-05T10:26:39.817Z,0.70
2023-03-05T10:29:37.438Z,0.80
2023-03-05T10:32:08.583Z,0.93
2023-03-05T10:34:57.139Z,0.93
2023-03-05T10:38:01.378Z,0.75
2023-03-05T10:40:47.486Z,0.65
2023-03-05T10:43:45.694Z,1.30
2023-03-05T10:46:17.800Z,1.13
2023-03-05T10:48:49.618Z,1.42
2023-03-05T10:51:26.313Z,1.55
2023-03-05T10:56:29.003Z,1.58
2023-03-05T10:58:57.113Z,1.58
2023-03-05T11:01:28.882Z,1.60
2023-03-05T11:04:08.444Z,1.75
2023-03-05T11:06:36.534Z,2.00
2023-03-05T11:09:29.419Z,1.23
2023-03-05T11:12:24.334Z,2.08
2023-03-05T11:15:10.750Z,1.40
2023-03-05T11:17:44.909Z,1.50
2023-03-05T11:20:28.041Z,1.58
2023-03-05T11:23:17.912Z,1.40
2023-03-05T11:26:08.874Z,1.30
2023-03-05T11:28:39.627Z,1.45
2023-03-05T11:31:24.778Z,1.08
2023-03-05T11:34:04.686Z,1.20
2023-03-05T11:36:37.764Z,1.30
2023-03-05T11:39:09.007Z,1.00
2023-03-05T11:41:46.841Z,0.90
2023-03-05T11:44:38.528Z,0.77
2023-03-05T11:47:28.947Z,0.90
2023-03-05T11:50:05.832Z,1.42
2023-03-05T11:52:46.709Z,1.00
2023-03-05T11:55:17.401Z,0.90
2023-03-05T11:58:13.407Z,0.60
2023-03-05T12:00:45.417Z,0.85
2023-03-05T12:03:19.805Z,0.73
2023-03-05T12:06:16.306Z,0.68
2023-03-05T12:08:51.994Z,0.60
2023-03-05T12:11:33.707Z,1.05
2023-03-05T12:14:19.955Z,0.30
2023-03-05T12:17:08.828Z,0.70
2023-03-05T12:19:45.435Z,0.70
2023-03-05T12:22:23.475Z,0.95
2023-03-05T12:24:52.584Z,0.68
2023-03-05T12:27:38.225Z,0.80
2023-03-05T12:30:06.625Z,1.17
2023-03-05T12:32:35.565Z,0.82
2023-03-05T12:35:25.003Z,1.10
2023-03-05T12:37:53.289Z,1.00
2023-03-05T12:40:28.652Z,0.90
2023-03-05T12:43:26.776Z,1.08
2023-03-05T12:46:29.298Z,0.73
2023-03-05T12:48:57.464Z,0.80
2023-03-05T12:51:38.679Z,0.82
2023-03-05T12:54:42.714Z,0.63
2023-03-05T12:57:20.994Z,0.90
2023-03-05T12:59:51.616Z,1.08
2023-03-05T13:02:26.375Z,0.70
2023-03-05T13:04:59.771Z,0.80
2023-03-05T13:07:27.947Z,0.57
2023-03-05T13:10:00.723Z,0.68
2023-03-05T13:12:31.032Z,0.55
2023-03-05T13:15:09.180Z,0.75
2023-03-05T13:17:55.227Z,0.80
2023-03-05T13:20:42.868Z,0.70
2023-03-05T13:23:16.792Z,0.80
2023-03-05T13:25:46.413Z,0.88
2023-03-05T13:28:16.963Z,0.90
2023-03-05T13:30:51.793Z,1.00
2023-03-05T13:33:26.308Z,0.47
2023-03-05T13:35:54.731Z,0.90
2023-03-05T13:38:33.155Z,0.50
2023-03-05T13:41:10.976Z,0.77
2023-03-05T13:43:55.588Z,0.70
2023-03-05T13:46:36.142Z,0.70
2023-03-05T13:49:24.563Z,0.63
2023-03-05T13:52:11.369Z,0.80
2023-03-05T13:54:40.549Z,0.82
2023-03-05T13:57:08.845Z,0.60
2023-03-05T13:59:41.051Z,0.70
2023-03-05T14:02:20.932Z,1.00
2023-03-05T14:04:49.151Z,0.85
2023-03-05T14:07:27.123Z,0.50
2023-03-05T14:09:56.955Z,0.80
2023-03-05T14:12:35.895Z,0.55
2023-03-05T14:15:20.642Z,0.60
2023-03-05T14:18:13.017Z,0.70
2023-03-05T14:21:11.432Z,0.60
2023-03-05T14:23:41.480Z,0.60
2023-03-05T14:26:29.342Z,1.30
2023-03-05T14:29:05.427Z,0.70
2023-03-05T14:31:46.100Z,0.70
2023-03-05T14:34:25.272Z,0.77
2023-03-05T14:36:55.675Z,0.82
2023-03-05T14:40:38.842Z,0.60
2023-03-05T14:43:09.613Z,0.82
2023-03-05T14:45:44.009Z,0.70
2023-03-05T14:48:14.628Z,1.05
2023-03-05T14:50:52.502Z,0.80
2023-03-05T14:53:31.692Z,0.70
2023-03-05T14:56:28.489Z,0.50
2023-03-05T14:58:57.954Z,0.90
2023-03-05T15:01:26.230Z,0.80
2023-03-05T15:03:54.360Z,0.50
2023-03-05T15:06:33.407Z,0.70
2023-03-05T15:09:02.269Z,0.63
2023-03-05T15:11:30.460Z,0.50
2023-03-05T15:13:58.656Z,0.95
2023-03-05T15:16:26.746Z,1.15
2023-03-05T15:19:14.015Z,0.60
2023-03-05T15:21:42.140Z,0.63
2023-03-05T15:26:55.407Z,0.68
2023-03-05T15:29:23.401Z,0.60
2023-03-05T15:31:53.946Z,1.00
2023-03-05T15:34:22.008Z,0.70
2023-03-05T15:36:50.054Z,0.70
2023-03-05T15:39:18.104Z,0.90
2023-03-05T15:41:46.144Z,0.60
2023-03-05T15:44:14.272Z,0.50
2023-03-05T15:46:42.339Z,1.10
2023-03-05T15:49:10.349Z,1.00
2023-03-05T15:51:38.358Z,0.70
2023-03-05T15:54:06.583Z,0.95
2023-03-05T15:56:34.778Z,0.70
2023-03-05T15:59:02.858Z,1.08
2023-03-05T16:01:30.925Z,0.75
2023-03-05T16:03:59.177Z,1.10
2023-03-05T16:06:27.293Z,0.70
2023-03-05T16:09:01.915Z,1.13
2023-03-05T16:11:32.609Z,0.90
2023-03-05T16:14:04.327Z,1.92
2023-03-05T16:16:34.333Z,1.00
2023-03-05T16:19:04.617Z,1.40
2023-03-05T16:21:32.742Z,1.30
2023-03-05T16:24:00.866Z,0.90
2023-03-05T16:26:28.921Z,1.00
2023-03-05T16:28:57.134Z,0.82
2023-03-05T16:34:16.621Z,1.30
2023-03-05T16:36:51.067Z,1.50
2023-03-05T16:39:20.789Z,0.95
2023-03-05T16:41:50.287Z,0.93
2023-03-05T16:44:18.469Z,2.65
2023-03-05T16:46:50.780Z,1.55
2023-03-05T16:49:20.529Z,1.10
2023-03-05T16:51:48.924Z,1.02
2023-03-05T16:54:17.073Z,0.80
2023-03-05T16:56:45.099Z,1.00
2023-03-05T16:59:14.014Z,0.80
2023-03-05T17:01:42.043Z,0.75
2023-03-05T17:04:10.161Z,0.90
2023-03-05T17:06:38.181Z,1.00
2023-03-05T17:09:06.263Z,0.60
2023-03-05T17:14:19.918Z,1.00
2023-03-05T17:16:48.084Z,0.93
2023-03-05T17:19:16.930Z,1.00
2023-03-05T17:21:45.036Z,0.93
2023-03-05T17:24:13.131Z,0.80
2023-03-05T17:27:00.044Z,1.13
2023-03-05T17:29:28.402Z,0.82
2023-03-05T17:31:56.453Z,1.27
2023-03-05T17:34:35.502Z,0.80
2023-03-05T17:39:50.868Z,0.77
2023-03-05T17:42:20.912Z,1.13
2023-03-05T17:50:10.184Z,0.80
2023-03-05T17:52:40.698Z,1.40
2023-03-05T17:55:10.962Z,0.80
2023-03-05T17:57:43.895Z,0.95
2023-03-05T18:00:18.541Z,0.82
2023-03-05T18:02:47.169Z,2.28
2023-03-05T18:05:15.810Z,0.70
2023-03-05T18:07:44.030Z,1.15
2023-03-05T18:10:13.875Z,1.30
2023-03-05T18:12:42.262Z,1.00
2023-03-05T18:15:14.961Z,1.15
2023-03-05T18:17:43.517Z,1.60
2023-03-05T18:20:29.070Z,0.88
2023-03-05T18:22:59.287Z,0.95
2023-03-05T18:25:31.730Z,1.45
2023-03-05T18:28:01.201Z,1.00
2023-03-05T18:30:30.568Z,1.25
2023-03-05T18:32:59.122Z,1.20
2023-03-05T18:35:29.491Z,1.10
2023-03-05T18:37:58.184Z,1.23
2023-03-05T18:40:46.195Z,0.85
2023-03-05T18:43:32.830Z,1.25
2023-03-05T18:46:05.164Z,1.40
2023-03-05T18:48:33.285Z,0.90
2023-03-05T18:51:02.157Z,1.45
2023-03-05T18:53:30.271Z,1.10
2023-03-05T18:55:58.275Z,1.13
2023-03-05T18:58:45.300Z,1.58
2023-03-05T19:01:13.644Z,0.80
2023-03-05T19:03:41.785Z,0.95
2023-03-05T19:06:10.092Z,1.10
2023-03-05T19:08:38.391Z,1.50
2023-03-05T19:11:15.898Z,1.30
2023-03-05T19:13:57.298Z,1.25
2023-03-05T19:16:30.608Z,0.80
2023-03-05T19:19:28.257Z,1.17
2023-03-05T19:22:14.822Z,1.15
2023-03-05T19:24:42.804Z,1.08
2023-03-05T19:27:11.806Z,1.15
2023-03-05T19:29:43.713Z,1.48
2023-03-05T19:32:17.811Z,1.20
2023-03-05T19:34:45.982Z,1.33
2023-03-05T19:37:14.838Z,1.33
2023-03-05T19:39:43.099Z,1.40
2023-03-05T19:42:11.429Z,1.20
2023-03-05T19:44:39.540Z,1.50
2023-03-05T19:47:08.094Z,1.77
2023-03-05T19:49:55.044Z,1.75
2023-03-05T19:52:23.194Z,1.58
2023-03-05T19:54:51.254Z,1.13
2023-03-05T19:57:19.317Z,1.38
2023-03-05T19:59:47.320Z,1.33
2023-03-05T20:02:34.004Z,1.30
2023-03-05T20:05:02.221Z,1.25
2023-03-05T20:07:30.327Z,1.05
2023-03-05T20:09:58.530Z,1.40
2023-03-05T20:12:26.823Z,1.40
2023-03-05T20:14:55.038Z,1.63
2023-03-05T20:17:23.171Z,1.67
2023-03-05T20:19:51.475Z,1.80
2023-03-05T20:22:19.760Z,1.30
2023-03-05T20:24:47.866Z,1.55
2023-03-05T20:27:15.940Z,1.30
2023-03-05T20:29:44.042Z,1.00
2023-03-05T20:32:12.115Z,1.35
2023-03-05T20:34:40.192Z,1.80
2023-03-05T20:37:08.281Z,1.63
2023-03-05T20:39:36.285Z,1.80
2023-03-05T20:42:04.429Z,1.42
2023-03-05T20:44:51.151Z,1.33
2023-03-05T20:47:51.363Z,1.23
2023-03-05T20:50:20.165Z,1.45
2023-03-05T20:52:48.222Z,1.33
2023-03-05T20:55:16.267Z,1.88
2023-03-05T20:57:44.473Z,1.83
2023-03-05T21:00:31.211Z,2.00
2023-03-05T21:02:59.663Z,1.70
2023-03-05T21:05:30.446Z,1.52
2023-03-05T21:08:00.125Z,1.42
2023-03-05T21:10:28.341Z,1.92
2023-03-05T21:12:56.743Z,1.85
2023-03-05T21:15:28.449Z,1.70
2023-03-05T21:17:57.134Z,1.45
2023-03-05T21:20:30.318Z,1.92
2023-03-05T21:22:59.201Z,1.35
2023-03-05T21:25:29.572Z,1.45
2023-03-05T21:28:04.903Z,1.58
2023-03-05T21:30:37.441Z,1.20
2023-03-05T21:33:12.632Z,1.40
2023-03-05T21:35:41.763Z,1.65
2023-03-05T21:38:11.056Z,1.10
2023-03-05T21:43:31.461Z,1.13
2023-03-05T21:46:01.417Z,1.10
2023-03-05T21:48:30.096Z,1.17
2023-03-05T21:50:58.864Z,1.35
2023-03-05T21:53:27.170Z,1.00
2023-03-05T21:56:38.975Z,1.25
2023-03-05T21:59:07.028Z,1.02
2023-03-05T22:01:35.220Z,1.55
2023-03-05T22:04:03.325Z,1.30
2023-03-05T22:06:31.465Z,1.33
2023-03-05T22:08:59.464Z,1.27
2023-03-05T22:11:27.536Z,1.40
2023-03-05T22:13:57.222Z,1.70
2023-03-05T22:16:27.279Z,1.40
2023-03-05T22:18:55.460Z,2.15
2023-03-05T22:21:27.204Z,1.20
2023-03-05T22:23:59.264Z,1.35
2023-03-05T22:26:35.176Z,1.48
2023-03-05T22:29:03.912Z,1.40
2023-03-05T22:31:32.483Z,1.40
2023-03-05T22:34:00.669Z,1.23
2023-03-05T22:36:28.688Z,1.20
2023-03-05T22:38:56.720Z,1.23
2023-03-05T22:41:24.761Z,1.77
2023-03-05T22:43:52.838Z,1.65
2023-03-05T22:46:26.498Z,1.50
2023-03-05T22:48:54.895Z,1.50
2023-03-05T22:51:22.995Z,1.85
2023-03-05T22:53:51.246Z,1.80
2023-03-05T22:56:21.031Z,2.00
2023-03-05T22:58:49.345Z,1.65
2023-03-05T23:01:22.885Z,1.45
2023-03-05T23:04:19.091Z,1.63
2023-03-05T23:06:48.798Z,1.70
2023-03-05T23:09:16.787Z,1.58
2023-03-05T23:11:44.871Z,1.23
2023-03-05T23:14:12.957Z,1.23
2023-03-05T23:16:41.074Z,1.50
2023-03-05T23:19:09.068Z,1.30
2023-03-05T23:21:37.245Z,1.02
2023-03-05T23:24:06.330Z,1.50
2023-03-05T23:26:34.400Z,1.35
2023-03-05T23:29:02.873Z,1.20
2023-03-05T23:34:16.718Z,1.13
2023-03-05T23:36:44.717Z,1.63
2023-03-05T23:39:12.789Z,1.50
2023-03-05T23:41:59.464Z,1.27
2023-03-05T23:44:27.544Z,1.15
2023-03-05T23:46:55.502Z,1.40
2023-03-05T23:49:23.539Z,1.60
2023-03-05T23:51:51.747Z,1.48
2023-03-05T23:54:19.835Z,1.65
2023-03-05T23:56:47.888Z,1.30
2023-03-05T23:59:15.906Z,1.27
